Paw Paw, Illinois
Current Conditions -  °F | °C
As of 6:55 AM on Wednesday 22 Oct 2014 (Local Time) from KRPJ Reporting Station
Haze Haze  
Wind Chill: 28°   Ceiling: Unl
Heat Index: 28°   Visibility: 2.5mi
Dew Point: 28°   Wind: 0mph
Humidity: 99%   Direction: NA
Pressure: 30.34"   Gusts: NA
Location:  41.69°N, 88.98°W
Report Text: KRPJ 221155Z AUTO 00000KT 2 1/2SM BR CLR M02/M02 A3034 RMK AO2 T10201021 10006 21020
Loading
Personal Weather Stations






























Interactive Weather Map New forecast layout! Learn more

10-Day Weather Forecast

Advertisements
Track Severe Weather on mobile